createdAt,value
2023-05-21T00:01:36.296Z,43.32
2023-05-21T00:04:03.590Z,42.96
2023-05-21T00:06:30.473Z,42.97
2023-05-21T00:08:57.274Z,43.34
2023-05-21T00:11:26.190Z,43.26
2023-05-21T00:13:52.783Z,42.91
2023-05-21T00:16:19.394Z,42.83
2023-05-21T00:18:46.054Z,43.18
2023-05-21T00:21:14.167Z,43.05
2023-05-21T00:23:42.832Z,43.13
2023-05-21T00:26:09.817Z,42.79
2023-05-21T00:28:36.461Z,43.29
2023-05-21T00:31:03.249Z,42.88
2023-05-21T00:33:31.959Z,43.13
2023-05-21T00:35:59.056Z,43.14
2023-05-21T00:38:28.015Z,43.41
2023-05-21T00:40:54.660Z,43.43
2023-05-21T00:43:26.118Z,43.00
2023-05-21T00:45:53.958Z,43.25
2023-05-21T00:48:23.318Z,43.03
2023-05-21T00:50:50.642Z,43.24
2023-05-21T00:53:19.469Z,43.40
2023-05-21T00:55:46.845Z,43.36
2023-05-21T00:58:13.776Z,43.59
2023-05-21T01:00:43.151Z,43.37
2023-05-21T01:03:12.369Z,43.48
2023-05-21T01:05:39.403Z,43.40
2023-05-21T01:08:07.672Z,43.25
2023-05-21T01:10:34.322Z,43.87
2023-05-21T01:13:01.456Z,44.07
2023-05-21T01:15:30.904Z,43.78
2023-05-21T01:17:57.638Z,43.57
2023-05-21T01:20:26.150Z,43.62
2023-05-21T01:22:57.102Z,43.33
2023-05-21T01:25:24.629Z,44.26
2023-05-21T01:27:52.407Z,44.00
2023-05-21T01:30:20.970Z,43.62
2023-05-21T01:33:04.223Z,43.82
2023-05-21T01:35:38.946Z,43.45
2023-05-21T01:38:21.738Z,44.02
2023-05-21T01:41:04.879Z,44.40
2023-05-21T01:43:38.869Z,44.28
2023-05-21T01:46:07.887Z,44.00
2023-05-21T01:48:35.119Z,43.92
2023-05-21T01:51:05.712Z,43.99
2023-05-21T01:53:32.448Z,44.28
2023-05-21T01:55:59.526Z,44.47
2023-05-21T01:58:28.509Z,44.48
2023-05-21T02:00:55.571Z,43.83
2023-05-21T02:03:23.322Z,43.93
2023-05-21T02:05:52.028Z,44.58
2023-05-21T02:08:19.903Z,44.22
2023-05-21T02:10:46.542Z,43.98
2023-05-21T02:13:13.170Z,44.02
2023-05-21T02:15:40.323Z,44.33
2023-05-21T02:18:07.045Z,44.97
2023-05-21T02:20:36.269Z,44.64
2023-05-21T02:23:02.885Z,44.37
2023-05-21T02:25:29.556Z,44.83
2023-05-21T02:27:56.800Z,44.51
2023-05-21T02:30:23.574Z,44.61
2023-05-21T02:32:50.830Z,44.78
2023-05-21T02:35:17.607Z,45.29
2023-05-21T02:37:44.624Z,45.05
2023-05-21T02:40:12.171Z,45.31
2023-05-21T02:42:42.786Z,44.99
2023-05-21T02:45:11.773Z,45.30
2023-05-21T02:47:38.898Z,45.57
2023-05-21T02:50:07.922Z,45.10
2023-05-21T02:52:34.871Z,45.30
2023-05-21T02:55:03.807Z,45.71
2023-05-21T02:57:30.813Z,45.70
2023-05-21T02:59:57.482Z,45.94
2023-05-21T03:02:24.222Z,45.17
2023-05-21T03:04:51.616Z,45.44
2023-05-21T03:07:19.895Z,45.56
2023-05-21T03:09:46.900Z,46.14
2023-05-21T03:12:13.664Z,45.75
2023-05-21T03:14:44.196Z,46.22
2023-05-21T03:17:17.166Z,45.70
2023-05-21T03:19:44.982Z,46.19
2023-05-21T03:22:12.055Z,45.91
2023-05-21T03:24:39.559Z,45.92
2023-05-21T03:27:07.166Z,46.35
2023-05-21T03:29:34.912Z,46.78
2023-05-21T03:32:02.178Z,46.14
2023-05-21T03:34:28.883Z,46.82
2023-05-21T03:36:57.718Z,46.96
2023-05-21T03:39:24.363Z,46.80
2023-05-21T03:41:51.353Z,46.68
2023-05-21T03:44:18.057Z,46.96
2023-05-21T03:46:45.687Z,46.58
2023-05-21T03:49:12.405Z,47.28
2023-05-21T03:51:39.703Z,47.34
2023-05-21T03:54:06.513Z,47.08
2023-05-21T03:56:33.144Z,47.09
2023-05-21T03:58:59.876Z,46.96
2023-05-21T04:01:28.422Z,47.20
2023-05-21T04:04:00.043Z,46.96
2023-05-21T04:06:26.796Z,47.26
2023-05-21T04:08:53.514Z,47.97
2023-05-21T04:11:20.942Z,48.05
2023-05-21T04:13:48.248Z,48.01
2023-05-21T04:16:19.244Z,47.47
2023-05-21T04:18:46.973Z,47.57
2023-05-21T04:21:16.962Z,47.86
2023-05-21T04:23:46.270Z,47.97
2023-05-21T04:26:13.228Z,48.61
2023-05-21T04:28:42.088Z,48.49
2023-05-21T04:31:13.052Z,48.13
2023-05-21T04:33:42.268Z,48.30
2023-05-21T04:36:11.774Z,48.27
2023-05-21T04:38:39.888Z,48.44
2023-05-21T04:41:12.227Z,48.26
2023-05-21T04:43:38.902Z,48.41
2023-05-21T04:46:06.098Z,48.67
2023-05-21T04:48:32.879Z,48.91
2023-05-21T04:51:01.568Z,48.62
2023-05-21T04:53:34.043Z,49.10
2023-05-21T04:56:00.702Z,48.68
2023-05-21T04:58:28.021Z,49.38
2023-05-21T05:00:54.682Z,48.87
2023-05-21T05:03:21.418Z,49.85
2023-05-21T05:05:48.171Z,49.48
2023-05-21T05:08:15.972Z,49.26
2023-05-21T05:10:43.013Z,49.21
2023-05-21T05:13:12.678Z,49.42
2023-05-21T05:15:39.310Z,49.35
2023-05-21T05:18:08.695Z,49.68
2023-05-21T05:20:38.589Z,49.52
2023-05-21T05:23:05.177Z,50.31
2023-05-21T05:25:31.805Z,50.11
2023-05-21T05:28:00.868Z,50.55
2023-05-21T05:30:27.537Z,50.67
2023-05-21T05:32:54.137Z,49.95
2023-05-21T05:35:20.881Z,50.57
2023-05-21T05:37:47.531Z,50.37
2023-05-21T05:40:14.166Z,50.29
2023-05-21T05:42:40.818Z,50.55
2023-05-21T05:45:07.941Z,50.85
2023-05-21T05:47:34.630Z,50.46
2023-05-21T05:50:01.297Z,50.35
2023-05-21T05:52:30.556Z,51.16
2023-05-21T05:54:57.201Z,51.40
2023-05-21T05:57:23.819Z,50.72
2023-05-21T05:59:52.905Z,51.35
2023-05-21T06:02:21.779Z,51.07
2023-05-21T06:04:50.501Z,51.26
2023-05-21T06:07:17.136Z,50.84
2023-05-21T06:09:43.835Z,51.00
2023-05-21T06:12:14.697Z,50.92
2023-05-21T06:14:46.081Z,51.30
2023-05-21T06:17:12.798Z,51.63
2023-05-21T06:19:39.791Z,51.36
2023-05-21T06:22:06.451Z,52.02
2023-05-21T06:24:33.079Z,51.89
2023-05-21T06:26:59.921Z,51.74
2023-05-21T06:29:26.541Z,52.06
2023-05-21T06:31:53.181Z,51.96
2023-05-21T06:34:22.044Z,51.36
2023-05-21T06:36:48.818Z,51.70
2023-05-21T06:39:17.772Z,52.13
2023-05-21T06:41:44.451Z,51.76
2023-05-21T06:44:11.132Z,51.54
2023-05-21T06:46:40.537Z,51.69
2023-05-21T06:49:07.226Z,51.62
2023-05-21T06:51:34.097Z,51.59
2023-05-21T06:54:03.152Z,51.75
2023-05-21T06:56:29.824Z,52.21
2023-05-21T06:58:56.548Z,52.13
2023-05-21T07:01:26.397Z,51.78
2023-05-21T07:03:53.326Z,51.86
2023-05-21T07:06:19.948Z,51.95
2023-05-21T07:08:48.147Z,52.20
2023-05-21T07:11:14.777Z,52.09
2023-05-21T07:13:41.459Z,52.41
2023-05-21T07:16:08.266Z,52.06
2023-05-21T07:18:37.826Z,52.66
2023-05-21T07:21:04.667Z,52.78
2023-05-21T07:23:31.355Z,52.84
2023-05-21T07:25:58.006Z,52.15
2023-05-21T07:28:24.762Z,52.06
2023-05-21T07:30:51.460Z,52.41
2023-05-21T07:33:20.724Z,52.97
2023-05-21T07:35:47.368Z,52.31
2023-05-21T07:38:14.392Z,52.92
2023-05-21T07:40:43.461Z,52.43
2023-05-21T07:43:10.113Z,56.90
2023-05-21T07:45:36.994Z,57.30
2023-05-21T07:48:04.006Z,56.83
2023-05-21T07:50:31.355Z,56.64
2023-05-21T07:52:58.174Z,55.97
2023-05-21T07:55:24.908Z,55.64
2023-05-21T07:57:53.843Z,55.50
2023-05-21T08:00:23.852Z,54.95
2023-05-21T08:02:52.508Z,55.25
2023-05-21T08:05:19.756Z,54.55
2023-05-21T08:07:46.441Z,54.83
2023-05-21T08:10:13.129Z,54.29
2023-05-21T08:12:42.273Z,54.49
2023-05-21T08:15:09.181Z,54.32
2023-05-21T08:17:35.978Z,54.11
2023-05-21T08:20:03.740Z,54.04
2023-05-21T08:22:30.408Z,53.44
2023-05-21T08:24:57.039Z,53.46
2023-05-21T08:27:23.688Z,53.52
2023-05-21T08:29:55.074Z,53.51
2023-05-21T08:32:21.770Z,53.40
2023-05-21T08:34:50.506Z,53.23
2023-05-21T08:37:18.444Z,53.29
2023-05-21T08:39:45.091Z,52.52
2023-05-21T08:42:35.212Z,52.42
2023-05-21T08:45:05.852Z,52.20
2023-05-21T08:47:37.076Z,52.81
2023-05-21T08:50:12.265Z,52.30
2023-05-21T08:52:41.448Z,52.00
2023-05-21T08:55:09.616Z,52.12
2023-05-21T08:57:37.502Z,52.57
2023-05-21T09:00:08.299Z,52.46
2023-05-21T09:02:35.463Z,52.05
2023-05-21T09:05:03.437Z,51.82
2023-05-21T09:07:48.916Z,51.90
2023-05-21T09:10:21.764Z,51.73
2023-05-21T09:12:49.051Z,51.25
2023-05-21T09:15:15.917Z,51.62
2023-05-21T09:17:46.535Z,51.73
2023-05-21T09:20:15.972Z,51.49
2023-05-21T09:22:43.228Z,50.73
2023-05-21T09:25:12.141Z,51.27
2023-05-21T09:27:39.825Z,51.19
2023-05-21T09:30:12.500Z,51.29
2023-05-21T09:32:40.517Z,50.60
2023-05-21T09:35:16.494Z,50.58
2023-05-21T09:37:45.085Z,50.43
2023-05-21T09:40:15.717Z,50.70
2023-05-21T09:42:47.161Z,50.61
2023-05-21T09:45:21.614Z,50.61
2023-05-21T09:47:49.395Z,50.43
2023-05-21T09:50:24.383Z,49.86
2023-05-21T09:52:53.049Z,50.14
2023-05-21T09:55:23.291Z,50.07
2023-05-21T09:57:50.875Z,50.17
2023-05-21T10:00:27.636Z,49.88
2023-05-21T10:02:56.019Z,49.79
2023-05-21T10:05:28.099Z,49.70
2023-05-21T10:08:02.811Z,49.33
2023-05-21T10:10:31.141Z,48.90
2023-05-21T10:13:07.019Z,49.26
2023-05-21T10:15:47.776Z,49.21
2023-05-21T10:18:16.504Z,48.88
2023-05-21T10:20:43.632Z,49.18
2023-05-21T10:23:10.697Z,49.28
2023-05-21T10:25:37.732Z,49.21
2023-05-21T10:28:07.031Z,49.33
2023-05-21T10:30:36.360Z,48.49
2023-05-21T10:33:04.420Z,48.94
2023-05-21T10:35:32.325Z,48.73
2023-05-21T10:37:59.871Z,49.31
2023-05-21T10:40:26.531Z,48.93
2023-05-21T10:43:30.735Z,48.80
2023-05-21T10:46:26.423Z,48.66
2023-05-21T10:49:11.610Z,48.91
2023-05-21T10:52:00.388Z,48.74
2023-05-21T10:54:32.886Z,48.61
2023-05-21T10:57:08.399Z,48.41
2023-05-21T10:59:43.574Z,48.38
2023-05-21T11:02:13.151Z,48.23
2023-05-21T11:04:42.560Z,48.28
2023-05-21T11:07:12.300Z,48.14
2023-05-21T11:09:41.225Z,47.85
2023-05-21T11:12:09.845Z,47.69
2023-05-21T11:14:43.034Z,46.42
2023-05-21T11:17:09.738Z,46.55
2023-05-21T11:19:42.925Z,46.62
2023-05-21T11:22:20.112Z,46.02
2023-05-21T11:24:50.616Z,46.33
2023-05-21T11:27:36.397Z,45.98
2023-05-21T11:30:06.772Z,46.03
2023-05-21T11:32:41.004Z,46.24
2023-05-21T11:35:08.204Z,46.11
2023-05-21T11:37:41.959Z,46.00
2023-05-21T11:40:17.764Z,45.63
2023-05-21T11:42:49.649Z,45.00
2023-05-21T11:45:19.072Z,44.63
2023-05-21T11:47:46.948Z,44.18
2023-05-21T11:50:16.013Z,42.91
2023-05-21T11:52:44.224Z,43.26
2023-05-21T11:55:15.532Z,43.17
2023-05-21T11:57:48.041Z,42.42
2023-05-21T12:00:16.410Z,42.05
2023-05-21T12:02:51.656Z,42.46
2023-05-21T12:05:18.754Z,42.18
2023-05-21T12:07:50.186Z,42.26
2023-05-21T12:10:20.474Z,41.99
2023-05-21T12:12:54.797Z,41.53
2023-05-21T12:15:24.350Z,40.89
2023-05-21T12:17:52.922Z,40.47
2023-05-21T12:20:20.149Z,40.02
2023-05-21T12:22:49.132Z,39.67
2023-05-21T12:25:20.218Z,39.20
2023-05-21T12:27:48.457Z,39.33
2023-05-21T12:30:15.345Z,38.53
2023-05-21T12:32:44.404Z,38.79
2023-05-21T12:35:21.761Z,38.57
2023-05-21T12:37:50.661Z,38.06
2023-05-21T12:40:18.057Z,37.36
2023-05-21T12:42:44.853Z,37.37
2023-05-21T12:45:11.901Z,37.14
2023-05-21T12:47:38.625Z,36.91
2023-05-21T12:50:09.595Z,36.67
2023-05-21T12:52:36.390Z,36.72
2023-05-21T12:55:06.217Z,36.56
2023-05-21T12:57:41.527Z,36.58
2023-05-21T13:00:09.521Z,36.66
2023-05-21T13:02:44.823Z,36.49
2023-05-21T13:05:19.993Z,36.79
2023-05-21T13:07:48.216Z,36.82
2023-05-21T13:10:17.070Z,36.50
2023-05-21T13:12:45.141Z,36.78
2023-05-21T13:15:12.160Z,35.65
2023-05-21T13:17:39.061Z,36.92
2023-05-21T13:20:20.469Z,36.95
2023-05-21T13:22:49.316Z,37.71
2023-05-21T13:25:25.040Z,37.26
2023-05-21T13:27:55.053Z,37.82
2023-05-21T13:30:22.673Z,37.33
2023-05-21T13:32:49.654Z,37.29
2023-05-21T13:35:17.594Z,37.11
2023-05-21T13:37:45.124Z,37.03
2023-05-21T13:40:17.304Z,36.80
2023-05-21T13:42:45.924Z,37.31
2023-05-21T13:45:14.528Z,37.04
2023-05-21T13:47:41.996Z,36.32
2023-05-21T13:50:09.667Z,36.51
2023-05-21T13:52:37.572Z,36.99
2023-05-21T13:55:05.023Z,36.64
2023-05-21T13:57:31.802Z,36.82
2023-05-21T13:59:59.624Z,35.71
2023-05-21T14:02:26.549Z,35.69
2023-05-21T14:04:53.992Z,35.65
2023-05-21T14:07:21.576Z,35.39
2023-05-21T14:09:48.563Z,35.38
2023-05-21T14:12:15.244Z,34.99
2023-05-21T14:14:42.164Z,35.20
2023-05-21T14:17:08.821Z,35.16
2023-05-21T14:19:35.728Z,34.82
2023-05-21T14:22:04.641Z,35.12
2023-05-21T14:24:33.723Z,35.34
2023-05-21T14:27:00.403Z,36.14
2023-05-21T14:29:27.074Z,35.36
2023-05-21T14:31:53.754Z,35.50
2023-05-21T14:34:20.579Z,35.14
2023-05-21T14:36:49.751Z,35.03
2023-05-21T14:39:17.236Z,35.34
2023-05-21T14:41:43.852Z,35.47
2023-05-21T14:44:12.909Z,35.15
2023-05-21T14:46:39.783Z,35.03
2023-05-21T14:49:06.517Z,35.33
2023-05-21T14:51:33.131Z,35.09
2023-05-21T14:53:59.793Z,35.00
2023-05-21T14:56:27.895Z,34.72
2023-05-21T14:58:55.074Z,34.45
2023-05-21T15:01:22.008Z,34.42
2023-05-21T15:03:49.083Z,34.47
2023-05-21T15:06:16.034Z,34.44
2023-05-21T15:08:42.702Z,34.63
2023-05-21T15:11:10.112Z,34.62
2023-05-21T15:13:36.847Z,34.29
2023-05-21T15:16:03.905Z,34.04
2023-05-21T15:18:30.695Z,33.49
2023-05-21T15:20:58.298Z,33.73
2023-05-21T15:23:27.346Z,33.86
2023-05-21T15:25:54.096Z,33.44
2023-05-21T15:28:20.807Z,33.44
2023-05-21T15:30:47.464Z,33.34
2023-05-21T15:33:14.314Z,32.96
2023-05-21T15:35:41.620Z,33.19
2023-05-21T15:38:13.079Z,32.76
2023-05-21T15:40:43.459Z,33.24
2023-05-21T15:43:10.166Z,33.54
2023-05-21T15:45:42.005Z,33.16
2023-05-21T15:48:08.975Z,33.31
2023-05-21T15:50:35.883Z,33.92
2023-05-21T15:53:04.249Z,33.53
2023-05-21T15:55:36.642Z,32.96
2023-05-21T15:58:03.989Z,32.75
2023-05-21T16:00:30.813Z,32.81
2023-05-21T16:02:57.655Z,32.79
2023-05-21T16:05:26.004Z,33.95
2023-05-21T16:07:52.696Z,34.56
2023-05-21T16:10:19.432Z,35.76
2023-05-21T16:12:46.130Z,35.49
2023-05-21T16:15:12.851Z,35.01
2023-05-21T16:17:39.660Z,36.02
2023-05-21T16:20:07.309Z,36.35
2023-05-21T16:22:33.973Z,36.40
2023-05-21T16:25:00.773Z,35.35
2023-05-21T16:27:27.444Z,35.80
2023-05-21T16:29:54.135Z,35.61
2023-05-21T16:32:21.330Z,35.85
2023-05-21T16:34:48.119Z,35.62
2023-05-21T16:37:14.766Z,35.67
2023-05-21T16:39:41.472Z,36.37
2023-05-21T16:42:08.134Z,36.12
2023-05-21T16:44:36.942Z,36.55
2023-05-21T16:47:04.434Z,36.43
2023-05-21T16:49:31.071Z,35.81
2023-05-21T16:51:57.799Z,35.88
2023-05-21T16:54:24.546Z,36.46
2023-05-21T16:56:51.280Z,36.16
2023-05-21T16:59:17.961Z,36.24
2023-05-21T17:01:44.652Z,35.92
2023-05-21T17:04:13.782Z,36.24
2023-05-21T17:06:40.384Z,35.46
2023-05-21T17:09:07.112Z,36.58
2023-05-21T17:11:38.385Z,36.67
2023-05-21T17:14:05.130Z,37.44
2023-05-21T17:16:34.385Z,37.19
2023-05-21T17:19:01.207Z,37.42
2023-05-21T17:21:27.813Z,38.12
2023-05-21T17:23:54.446Z,37.28
2023-05-21T17:26:23.178Z,37.08
2023-05-21T17:28:49.874Z,36.87
2023-05-21T17:31:17.071Z,37.17
2023-05-21T17:33:43.782Z,37.42
2023-05-21T17:36:12.761Z,38.25
2023-05-21T17:38:39.388Z,39.02
2023-05-21T17:41:06.150Z,38.71
2023-05-21T17:43:32.785Z,38.32
2023-05-21T17:45:59.508Z,38.39
2023-05-21T17:48:26.554Z,38.02
2023-05-21T17:50:53.283Z,38.21
2023-05-21T17:53:20.077Z,38.66
2023-05-21T17:55:49.241Z,39.03
2023-05-21T17:58:18.079Z,38.53
2023-05-21T18:00:44.799Z,38.45
2023-05-21T18:03:11.568Z,37.73
2023-05-21T18:05:38.571Z,38.09
2023-05-21T18:08:07.019Z,37.95
2023-05-21T18:10:36.886Z,38.44
2023-05-21T18:13:05.791Z,38.09
2023-05-21T18:15:33.236Z,38.57
2023-05-21T18:18:00.233Z,38.89
2023-05-21T18:20:26.997Z,39.05
2023-05-21T18:22:54.444Z,38.74
2023-05-21T18:25:21.201Z,39.21
2023-05-21T18:27:47.903Z,40.04
2023-05-21T18:30:14.654Z,39.89
2023-05-21T18:32:41.288Z,40.24
2023-05-21T18:35:11.422Z,40.90
2023-05-21T18:37:39.094Z,41.13
2023-05-21T18:40:08.873Z,41.07
2023-05-21T18:42:38.034Z,41.21
2023-05-21T18:45:10.167Z,41.36
2023-05-21T18:47:39.224Z,41.08
2023-05-21T18:50:26.365Z,41.09
2023-05-21T18:52:56.304Z,40.88
2023-05-21T18:55:22.942Z,41.13
2023-05-21T18:57:49.691Z,40.76
2023-05-21T19:00:16.780Z,41.01
2023-05-21T19:02:44.588Z,40.68
2023-05-21T19:05:11.945Z,39.83
2023-05-21T19:07:38.753Z,39.43
2023-05-21T19:10:05.971Z,39.47
2023-05-21T19:12:34.079Z,39.72
2023-05-21T19:15:04.008Z,39.02
2023-05-21T19:17:30.683Z,39.45
2023-05-21T19:20:00.351Z,38.94
2023-05-21T19:22:27.891Z,39.19
2023-05-21T19:24:55.139Z,39.37
2023-05-21T19:27:24.210Z,39.52
2023-05-21T19:29:51.786Z,39.32
2023-05-21T19:32:20.726Z,39.45
2023-05-21T19:34:48.328Z,39.44
2023-05-21T19:37:14.978Z,39.68
2023-05-21T19:39:43.404Z,39.34
2023-05-21T19:42:10.791Z,39.66
2023-05-21T19:44:40.969Z,39.84
2023-05-21T19:47:08.124Z,40.26
2023-05-21T19:49:34.852Z,40.48
2023-05-21T19:52:02.527Z,40.66
2023-05-21T19:54:29.280Z,40.65
2023-05-21T19:56:56.825Z,41.00
2023-05-21T19:59:23.510Z,41.49
2023-05-21T20:01:50.188Z,41.59
2023-05-21T20:04:17.176Z,41.75
2023-05-21T20:06:43.889Z,42.39
2023-05-21T20:09:13.246Z,42.51
2023-05-21T20:11:42.189Z,42.78
2023-05-21T20:14:08.882Z,42.69
2023-05-21T20:16:35.642Z,43.07
2023-05-21T20:19:03.775Z,43.19
2023-05-21T20:21:31.875Z,43.32
2023-05-21T20:23:58.587Z,43.59
2023-05-21T20:26:27.579Z,43.38
2023-05-21T20:28:54.194Z,43.74
2023-05-21T20:31:21.852Z,43.49
2023-05-21T20:33:50.648Z,43.75
2023-05-21T20:36:17.904Z,43.99
2023-05-21T20:38:45.738Z,43.99
2023-05-21T20:41:12.638Z,44.10
2023-05-21T20:43:39.599Z,44.18
2023-05-21T20:46:06.457Z,44.14
2023-05-21T20:48:35.412Z,44.47
2023-05-21T20:51:05.084Z,44.39
2023-05-21T20:53:32.074Z,44.53
2023-05-21T20:56:01.668Z,44.42
2023-05-21T20:58:28.892Z,44.16
2023-05-21T21:00:55.576Z,44.45
2023-05-21T21:03:24.917Z,44.65
2023-05-21T21:05:52.909Z,44.75
2023-05-21T21:08:19.783Z,44.73
2023-05-21T21:10:47.018Z,44.71
2023-05-21T21:13:14.757Z,44.74
2023-05-21T21:15:42.710Z,44.88
2023-05-21T21:18:12.588Z,44.97
2023-05-21T21:20:41.222Z,45.26
2023-05-21T21:23:08.328Z,45.46
2023-05-21T21:25:35.013Z,45.25
2023-05-21T21:28:01.642Z,45.26
2023-05-21T21:30:28.311Z,45.40
2023-05-21T21:32:55.164Z,45.25
2023-05-21T21:35:21.890Z,45.33
2023-05-21T21:37:48.590Z,45.68
2023-05-21T21:40:15.226Z,45.69
2023-05-21T21:42:44.391Z,45.65
2023-05-21T21:45:11.412Z,45.99
2023-05-21T21:47:38.210Z,45.98
2023-05-21T21:50:05.657Z,46.13
2023-05-21T21:52:32.536Z,45.98
2023-05-21T21:54:59.261Z,46.21
2023-05-21T21:57:29.468Z,46.31
2023-05-21T21:59:56.101Z,46.15
2023-05-21T22:02:22.798Z,46.36
2023-05-21T22:04:49.499Z,46.37
2023-05-21T22:07:17.923Z,46.41
2023-05-21T22:09:45.773Z,46.62
2023-05-21T22:12:13.183Z,46.45
2023-05-21T22:14:39.863Z,46.71
2023-05-21T22:17:09.191Z,46.75
2023-05-21T22:19:35.979Z,47.02
2023-05-21T22:22:04.207Z,47.02
2023-05-21T22:24:32.399Z,47.09
2023-05-21T22:26:59.949Z,47.08
2023-05-21T22:29:31.611Z,46.91
2023-05-21T22:31:58.285Z,46.97
2023-05-21T22:34:25.435Z,47.23
2023-05-21T22:36:52.155Z,47.14
2023-05-21T22:39:18.749Z,47.19
2023-05-21T22:41:45.730Z,47.14
2023-05-21T22:44:12.334Z,47.60
2023-05-21T22:46:39.018Z,47.41
2023-05-21T22:49:06.381Z,47.72
2023-05-21T22:51:34.738Z,47.75
2023-05-21T22:54:01.896Z,47.82
2023-05-21T22:56:29.058Z,47.57
2023-05-21T22:58:58.445Z,47.52
2023-05-21T23:01:25.151Z,47.82
2023-05-21T23:03:52.107Z,47.82
2023-05-21T23:06:21.080Z,47.86
2023-05-21T23:08:47.667Z,47.88
2023-05-21T23:11:14.350Z,48.07
2023-05-21T23:13:41.345Z,48.09
2023-05-21T23:16:08.090Z,47.57
2023-05-21T23:18:35.527Z,47.84
2023-05-21T23:21:02.490Z,47.76
2023-05-21T23:23:29.273Z,47.87
2023-05-21T23:25:57.705Z,48.03
2023-05-21T23:28:25.547Z,48.07
2023-05-21T23:30:52.276Z,48.06
2023-05-21T23:33:18.925Z,48.06
2023-05-21T23:35:45.584Z,47.87
2023-05-21T23:38:12.248Z,48.12
2023-05-21T23:40:39.137Z,47.74
2023-05-21T23:43:06.063Z,47.83
2023-05-21T23:45:32.919Z,47.93
2023-05-21T23:47:59.568Z,47.88
2023-05-21T23:50:26.292Z,47.87
2023-05-21T23:52:52.981Z,47.59
2023-05-21T23:55:19.637Z,47.75
2023-05-21T23:57:46.412Z,47.77
